Tiempo atmosférico en la estación meteorológica de Zaorejas, Guadalajara (1230 m.)



Fecha
DESCASC
Temp. máxima en grados centígrados (hora)
DESCASC
Temp. mínima en grados centígrados (hora)
DESCASC
Temp. media en grados centígrados
DESCASC
Racha de viento máxima en m/sg (hora)
DESCASC
Velocidad máxima media en intervalos de 10 minutos(hora)
DESCASC
Precipitaciones diarias en mm
DESCASC
Precipitaciones de 00:00 a 06:00 en mm
DESCASC
Precipitaciones de 06:00 a 12:00 en mm
DESCASC
Precipitaciones de 12:00 a 18:00 en mm
DESCASC
Precipitaciones de 18:00 a 24:00 en mm
DESCASC
16-06-2019 -- (--) -- (--) -- -- (--) -- (--) -- 0 -- 0 0
15-06-2019 23.7 (19:10) 7.1 (06:10) 15.4 7.5 (18:20) 3.89 (02:10) 0 0 0 0 0
14-06-2019 22.8 (17:50) 13.6 (23:59) 18.2 14.17 (16:00) 7.78 (18:40) 0 0 0 0 0
13-06-2019 23.7 (18:10) 9.7 (00:00) 16.7 10 (05:20) 5.83 (10:50) 0 0 0 0 0
12-06-2019 21 (18:50) 1.3 (00:00) 11.1 10 (16:20) 5 (18:50) 0 0 0 0 0
11-06-2019 14.6 (18:20) 6.8 (00:00) 10.7 10 (15:40) 5.28 (15:40) 0 0 0 0 0
10-06-2019 21.8 (18:20) 7.5 (00:00) 14.6 8.06 (16:00) 3.89 (17:50) 0 0 0 0 0
09-06-2019 24 (18:40) 11.2 (00:00) 17.6 10.83 (16:50) 5.83 (17:00) 0 0 0 0 0
08-06-2019 24.3 (18:40) 4.9 (00:00) 14.6 11.67 (15:30) 5.83 (12:40) 0 0 0 0 0
07-06-2019 18.9 (19:00) 7.9 (00:00) 13.4 14.17 (07:20) 7.78 (02:50) 0 0 0 0 0
06-06-2019 20.3 (18:50) 4.1 (00:00) 12.2 16.39 (16:20) 8.89 (16:20) 0 0 0 0 0
05-06-2019 17.5 (00:00) 8.1 (00:00) 12.8 13.89 (11:20) 6.11 (11:10) 0 0 0 0 0
04-06-2019 26.6 (16:40) 14.1 (00:00) 20.4 15 (14:00) 8.06 (13:40) 0 0 0 0 0
03-06-2019 28.8 (17:30) 16.4 (00:00) 22.6 12.22 (17:50) 6.94 (17:50) 0 0 0 0 0
02-06-2019 29.5 (19:40) 14.1 (00:00) 21.8 8.06 (10:50) 5.28 (01:00) 0 0 0 0 0
01-06-2019 28.6 (19:10) 10.9 (00:00) 19.8 7.22 (15:20) 4.44 (02:20) 0 0 0 0 0
31-05-2019 28.2 (19:00) 8.3 (00:00) 18.3 6.39 (21:30) 3.33 (03:00) 0 0 0 0 0
30-05-2019 25.5 (18:40) 5.4 (00:00) 15.5 6.94 (13:20) 3.61 (17:50) 0 0 0 0 0
29-05-2019 18.8 (18:10) 4.1 (00:00) 11.4 12.78 (10:30) 6.94 (10:20) 0 0 0 0 0
28-05-2019 18.7 (17:40) 5.4 (00:00) 12.1 9.44 (21:10) 5.28 (19:20) 0 0 0 0 0
27-05-2019 22.6 (17:50) 7 (00:00) 14.8 9.44 (12:50) 5.28 (18:40) 0 0 0 0 0
26-05-2019 19.3 (17:40) 4.7 (00:00) 12 10.28 (17:10) 5.28 (15:20) 0 0 0 0 0
25-05-2019 18.1 (17:50) 6.5 (00:00) 12.3 11.94 (05:00) 6.67 (09:00) 0 0 0 0 0
24-05-2019 14 (00:00) 8.1 (00:00) 11.1 9.72 (21:20) 5.28 (19:40) 0 0 0 0 0
23-05-2019 23.1 (16:40) 8.7 (00:00) 15.9 10 (16:10) 5.28 (15:20) 0 0 0 0 0
22-05-2019 23.4 (18:40) 5.4 (00:00) 14.4 6.39 (15:30) 3.33 (12:00) 0 0 0 0 0
21-05-2019 18.7 (14:00) 3.9 (07:10) 11.3 6.94 (17:00) 3.33 (15:40) 0 0 0 0 0

Gráficas

Temp. máximas Temp. mínimas Temp. medias Precipitaciones Rachas de viento máximas Velocidades máximas media en intervalos de 10 minutos

Datos horarios

Fecha y hora oficial Temperatura (ºC) Velocidad del viento (km/h) Dirección del viento Racha (km/h) Dirección de racha Precipitación (mm) Presión (hPa) Tendencia (hPa) Humedad (%)
2019-06-19 23:00:00 18.9 12 Sudoeste 22 Oeste 0 -- -- 48
2019-06-19 22:00:00 20.3 12 Sudoeste 26 Sudoeste 0 -- -- 45
2019-06-19 21:00:00 22.1 12 Oeste 27 Sudoeste 0 -- -- 40
2019-06-19 20:00:00 24.3 15 Sudoeste 30 Oeste 0 -- -- 34
2019-06-19 19:00:00 25.2 14 Sudoeste 40 Oeste 0 -- -- 31
2019-06-19 18:00:00 25.1 18 Oeste 44 Oeste 0 -- -- 33
2019-06-19 17:00:00 24.8 16 Sudoeste 37 Sur 0 -- -- 35
2019-06-19 16:00:00 24.2 17 Sudoeste 38 Sudoeste 0 -- -- 38
2019-06-19 15:00:00 22.8 18 Sudoeste 37 Sudoeste 0 -- -- 42
2019-06-19 14:00:00 21.6 13 Oeste 34 Sudoeste 0 -- -- 46
2019-06-19 13:00:00 20.4 18 Sudoeste -- -- -- -- -- 48
2019-06-19 12:00:00 -- -- -- -- -- -- -- -- --
2019-06-19 11:00:00 -- -- -- -- -- -- -- -- --
2019-06-19 10:00:00 -- -- -- -- -- -- -- -- --
2019-06-19 09:00:00 -- -- -- -- -- -- -- -- --
2019-06-19 08:00:00 -- -- -- -- -- -- -- -- --
2019-06-19 07:00:00 -- -- -- -- -- -- -- -- --
2019-06-19 06:00:00 -- -- -- -- -- -- -- -- --
2019-06-19 05:00:00 -- -- -- -- -- -- -- -- --
2019-06-19 04:00:00 -- -- -- -- -- -- -- -- --
2019-06-19 03:00:00 -- -- -- -- -- -- -- -- --
2019-06-19 02:00:00 -- -- -- -- -- -- -- -- --
2019-06-19 01:00:00 -- -- -- -- -- -- -- -- --
2019-06-19 00:00:00 -- -- -- -- -- -- -- -- --
2019-06-18 23:00:00 -- -- -- -- -- -- -- -- --
2019-06-18 22:00:00 -- -- -- -- -- -- -- -- --
2019-06-18 21:00:00 -- -- -- -- -- -- -- -- --
2019-06-18 20:00:00 -- -- -- -- -- -- -- -- --
2019-06-18 19:00:00 27.2 22 Sudoeste 55 Sudoeste 0 -- -- 22
2019-06-18 18:00:00 26.9 27 Sudoeste 53 Sudoeste 0 -- -- 21
2019-06-18 17:00:00 27 27 Sudoeste 53 Oeste 0 -- -- 22
2019-06-18 16:00:00 26.7 25 Sudoeste 54 Sudoeste 0 -- -- 24
2019-06-18 15:00:00 25.8 24 Sudoeste 48 Oeste 0 -- -- 25
2019-06-18 14:00:00 25.3 20 Sudoeste 47 Sudoeste 0 -- -- 27
2019-06-18 13:00:00 24.3 19 Sudoeste 42 Sudoeste 0 -- -- 30
2019-06-18 12:00:00 22.9 19 Sudoeste 36 Sudoeste 0 -- -- 32
2019-06-18 11:00:00 21.8 19 Sudoeste 35 Sudoeste 0 -- -- 36
2019-06-18 10:00:00 20.1 17 Sudoeste 34 Sudoeste 0 -- -- 33
2019-06-18 09:00:00 18.4 18 Sudoeste 30 Sudoeste 0 -- -- 40
2019-06-18 08:00:00 16.4 17 Sur 28 Sur 0 -- -- 48
2019-06-18 07:00:00 16.4 14 Sur 28 Sur 0 -- -- 47
2019-06-18 06:00:00 16.7 15 Sur 25 Sur 0 -- -- 49
2019-06-18 05:00:00 17.1 14 Sur 25 Sur 0 -- -- 49
2019-06-18 04:00:00 17.6 16 Sur 23 Sur 0 -- -- 48
2019-06-18 03:00:00 17.9 14 Sur 26 Sur 0 -- -- 46
2019-06-18 02:00:00 18.1 13 Sur 24 Sur 0 -- -- 40
2019-06-18 01:00:00 18.5 13 Sur 21 Sur 0 -- -- 33
2019-06-18 00:00:00 19.3 14 Sur 25 Sur 0 -- -- 32
2019-06-17 23:00:00 20.9 13 Sudoeste 18 Sudoeste 0 -- -- 30
2019-06-17 22:00:00 22.8 9 Sudoeste 17 Sudoeste 0 -- -- 26
2019-06-17 21:00:00 24.5 12 Sudoeste 31 Sudoeste 0 -- -- 24
2019-06-17 20:00:00 27.3 17 Sudoeste 31 Sudoeste 0 -- -- 21
2019-06-17 19:00:00 28.3 12 Sudoeste 32 Sudoeste 0 -- -- 20
2019-06-17 18:00:00 28.3 17 Sudoeste 33 Sudoeste 0 -- -- 19
2019-06-17 17:00:00 27.8 15 Sudoeste 31 Sudoeste 0 -- -- 22
2019-06-17 16:00:00 27.4 14 Sur 32 Sudoeste 0 -- -- 22
2019-06-17 15:00:00 26.6 16 Sudoeste 29 Sur 0 -- -- 22
2019-06-17 14:00:00 26.1 15 Sudoeste 32 Sudoeste 0 -- -- 23
2019-06-17 13:00:00 25.1 11 Sudoeste 24 Sudoeste 0 -- -- 26
2019-06-17 12:00:00 23.7 6 Sudoeste 14 Oeste 0 -- -- 38
2019-06-17 11:00:00 21.5 6 Oeste 14 Oeste 0 -- -- 41
2019-06-17 10:00:00 17.8 2 Nordeste 10 Nordeste 0 -- -- 56
2019-06-17 09:00:00 14.4 3 Nordeste 9 Sur 0 -- -- 66
2019-06-17 08:00:00 13.1 2 Este 15 Sudeste 0 -- -- 68
2019-06-17 07:00:00 12.2 9 Sur 17 Sur 0 -- -- 63
2019-06-17 06:00:00 12.6 12 Sur 20 Sudeste 0 -- -- 66
2019-06-17 05:00:00 13.4 13 Sur 21 Sur 0 -- -- 66
2019-06-17 04:00:00 13.8 15 Sur 26 Sur 0 -- -- 64
2019-06-17 03:00:00 14.7 14 Sur 21 Sur 0 -- -- 59
2019-06-17 02:00:00 15.7 14 Sur 20 Sur 0 -- -- 55
2019-06-17 01:00:00 16.2 14 Sur 21 Sur 0 -- -- 50
2019-06-17 00:00:00 17.1 15 Sur 21 Sur 0 -- -- 44
2019-06-16 23:00:00 17.5 13 Sur 18 Sur 0 -- -- 40
2019-06-16 22:00:00 19.8 10 Sudoeste 24 Sudoeste 0 -- -- 36
2019-06-16 21:00:00 21.5 15 Sudoeste 30 Sudoeste 0 -- -- 33
2019-06-16 20:00:00 23 13 Sudoeste 30 Sudoeste 0 -- -- 28
2019-06-16 19:00:00 25.1 13 Sudoeste 30 Sudoeste 0 -- -- 26
2019-06-16 18:00:00 25.4 10 Sudoeste 26 Oeste 0 -- -- 28
2019-06-16 17:00:00 24.9 10 Sudoeste 27 Sudoeste 0 -- -- 27
2019-06-16 16:00:00 24.5 12 Sudoeste 32 Sur 0 -- -- 30
2019-06-16 15:00:00 24.9 13 Sudoeste 36 Sudoeste 0 -- -- 28
2019-06-16 14:00:00 24.2 15 Sudoeste 31 Sur 0 -- -- 29
2019-06-16 13:00:00 23.1 14 Sudoeste 30 Sudoeste 0 -- -- 32
2019-06-16 12:00:00 21.6 13 Sur 28 Sudoeste 0 -- -- 32
2019-06-16 11:00:00 19.9 12 Sudoeste 20 Sur 0 -- -- 32
2019-06-16 10:00:00 17.5 11 Sur 18 Sudoeste 0 -- -- 40
2019-06-16 09:00:00 12.2 5 Sur 15 Sur 0 -- -- 60
2019-06-16 08:00:00 -- -- -- -- -- -- -- -- --
2019-06-16 07:00:00 7.8 3 Nordeste 8 Nordeste 0 -- -- 74
2019-06-16 06:00:00 8.6 4 Nordeste 8 Nordeste 0 -- -- 72
2019-06-16 05:00:00 9.7 5 Nordeste 14 Este 0 -- -- 69
2019-06-16 04:00:00 10.4 7 Este 13 Este 0 -- -- 66
2019-06-16 03:00:00 11 5 Nordeste 15 Este 0 -- -- 63
2019-06-16 02:00:00 12 6 Nordeste 17 Este 0 -- -- 59
2019-06-16 01:00:00 13.1 5 Nordeste 17 Nordeste 0 -- -- 53
2019-06-16 00:00:00 14.5 7 Este 14 Este 0 -- -- 45
2019-06-15 23:00:00 16.7 5 Sudeste 9 Sudeste 0 -- -- 38
2019-06-15 22:00:00 18.3 3 Oeste 12 Oeste 0 -- -- 33
2019-06-15 21:00:00 20.2 6 Oeste 14 Oeste 0 -- -- 29
2019-06-15 20:00:00 22.8 7 Oeste 22 Sudoeste 0 -- -- 24
2019-06-15 19:00:00 23.4 8 Sudoeste 27 Oeste 0 -- -- 25
2019-06-15 18:00:00 23 9 Oeste 24 Oeste 0 -- -- 27
2019-06-15 17:00:00 22.3 12 Sudoeste 26 Sudoeste 0 -- -- 31
2019-06-15 16:00:00 21.6 10 Oeste 23 Sudoeste 0 -- -- 33
2019-06-15 15:00:00 20.5 6 Oeste 17 Oeste 0 -- -- 32
2019-06-15 14:00:00 19.3 5 Noroeste 14 Oeste 0 -- -- 36
2019-06-15 13:00:00 17.4 5 Oeste 17 Oeste 0 -- -- 38
2019-06-15 12:00:00 15.6 4 Noroeste 15 Oeste 0 -- -- 47
2019-06-15 11:00:00 14.2 4 Este 15 Nordeste 0 -- -- 51
2019-06-15 10:00:00 11.8 6 Norte 16 Norte 0 -- -- 60
2019-06-15 09:00:00 9.9 5 Norte 17 Norte 0 -- -- 65
2019-06-15 08:00:00 7.8 3 Norte 7 Noroeste 0 -- -- 68
2019-06-15 07:00:00 7.2 4 Sudeste 7 Este 0 -- -- 66
2019-06-15 06:00:00 7.2 6 Sur 13 Sur 0 -- -- 63
2019-06-15 05:00:00 8.6 6 Sudoeste 19 Sur 0 -- -- 57
2019-06-15 04:00:00 10.3 8 Sudoeste 26 Sudoeste 0 -- -- 52
2019-06-15 03:00:00 10.9 12 Sudoeste 23 Sudoeste 0 -- -- 50
2019-06-15 02:00:00 11.4 12 Sudoeste 23 Sudoeste 0 -- -- 48
2019-06-15 01:00:00 12.6 9 Sudoeste 21 Sudoeste 0 -- -- 43
2019-06-15 00:00:00 13.6 8 Sudoeste 23 Sudoeste 0 -- -- 37
2019-06-14 23:00:00 14.9 16 Sudoeste 27 Oeste 0 -- -- 34
2019-06-14 22:00:00 16.5 14 Sudoeste 36 Oeste 0 -- -- 31
2019-06-14 21:00:00 18.5 18 Sudoeste 37 Sudoeste 0 -- -- 28
2019-06-14 20:00:00 21.3 23 Sudoeste 43 Sudoeste 0 -- -- 26
2019-06-14 19:00:00 22 22 Sudoeste 46 Sudoeste 0 -- -- 25
2019-06-14 18:00:00 22.7 23 Sudoeste 49 Oeste 0 -- -- 25
2019-06-14 17:00:00 22.4 21 Sudoeste 45 Sudoeste 0 -- -- 30
2019-06-14 16:00:00 22.2 22 Sudoeste 51 Sudoeste 0 -- -- 32
2019-06-14 15:00:00 21.7 19 Sudoeste 48 Sudoeste 0 -- -- 30
2019-06-14 14:00:00 20.7 22 Sudoeste 40 Sudoeste 0 -- -- 37
2019-06-14 13:00:00 19.8 15 Sudoeste 35 Sudoeste 0 -- -- 40
2019-06-14 12:00:00 18.9 18 Sudoeste 35 Sudoeste 0 -- -- 45
2019-06-14 11:00:00 17.2 16 Oeste 31 Sudoeste 0 -- -- 53
2019-06-14 10:00:00 15.4 13 Sudoeste 22 Sur 0 -- -- 65
2019-06-14 09:00:00 14 10 Sudoeste 18 Sudoeste 0 -- -- 79
2019-06-14 08:00:00 13.8 8 Sudoeste 17 Sudoeste 0 -- -- 80
2019-06-14 07:00:00 14 2 Oeste 13 Sudoeste 0 -- -- 75
2019-06-14 06:00:00 14.4 9 Sudoeste 17 Sur 0 -- -- 74
2019-06-14 05:00:00 14.6 11 Sur 22 Sudoeste 0 -- -- 73
2019-06-14 04:00:00 14.7 15 Sur 23 Sudoeste 0 -- -- 72
2019-06-14 03:00:00 14.8 13 Sudoeste 19 Sudoeste 0 -- -- 70
2019-06-14 02:00:00 15.7 12 Sudoeste 23 Sudoeste 0 -- -- 65
2019-06-14 01:00:00 16.2 13 Sudoeste 22 Oeste 0 -- -- 59
2019-06-14 00:00:00 16.5 9 Sur 16 Sur 0 -- -- 55
2019-06-13 23:00:00 17.1 6 Sur 12 Sur 0 -- -- 54
2019-06-13 22:00:00 18.7 7 Sur 15 Sudoeste 0 -- -- 50
2019-06-13 21:00:00 20.2 11 Sur 24 Sur 0 -- -- 46
2019-06-13 20:00:00 22.1 10 Sur 28 Sur 0 -- -- 40
2019-06-13 19:00:00 22.5 14 Sudoeste 28 Sudoeste 0 -- -- 37
2019-06-13 18:00:00 23.4 11 Sur 30 Sudoeste 0 -- -- 37
2019-06-13 17:00:00 22.5 13 Sur 33 Sur 0 -- -- 39
2019-06-13 16:00:00 22.4 14 Sur 36 Sudoeste 0 -- -- 40
2019-06-13 15:00:00 20.5 16 Sur 31 Sur 0 -- -- 46
2019-06-13 14:00:00 20.6 16 Sudoeste 36 Sudoeste 0 -- -- 46
2019-06-13 13:00:00 19.3 10 Sudoeste 30 Sur 0 -- -- 52
2019-06-13 12:00:00 18.8 16 Sudoeste 32 Sudoeste 0 -- -- 49
2019-06-13 11:00:00 16.9 16 Sur 35 Sur 0 -- -- 54
2019-06-13 10:00:00 15.1 17 Sur 35 Sur 0 -- -- 64
2019-06-13 09:00:00 13 15 Sur 31 Sudeste 0 -- -- 72
2019-06-13 08:00:00 10.9 12 Sur 30 Sur 0 -- -- 81
2019-06-13 07:00:00 9.8 14 Sur 31 Sur 0 -- -- 83
2019-06-13 06:00:00 9.7 15 Sur 36 Sur 0 -- -- 83
2019-06-13 05:00:00 9.9 18 Sur 36 Sur 0 -- -- 80
2019-06-13 04:00:00 10.3 14 Sur 30 Sur 0 -- -- 74
2019-06-13 03:00:00 10.6 17 Sur 27 Sudoeste 0 -- -- 72
2019-06-13 02:00:00 11.2 15 Sur 27 Sur 0 -- -- 69
2019-06-13 01:00:00 12 17 Sur 28 Sur 0 -- -- 65
2019-06-13 00:00:00 12.2 12 Sur 19 Sur 0 -- -- 50
2019-06-12 23:00:00 14 0 Calma 6 Oeste 0 -- -- 34
2019-06-12 22:00:00 16.5 6 Sudoeste 26 Sudoeste 0 -- -- 30
2019-06-12 21:00:00 18.3 12 Sudoeste 27 Sudoeste 0 -- -- 29
2019-06-12 20:00:00 20 13 Sudoeste 30 Sudoeste 0 -- -- 27
2019-06-12 19:00:00 20.6 15 Sudoeste 35 Sudoeste 0 -- -- 25
2019-06-12 18:00:00 20.6 15 Sudoeste 31 Sudoeste 0 -- -- 24
2019-06-12 17:00:00 20 10 Oeste 36 Sudoeste 0 -- -- 27
2019-06-12 16:00:00 19.3 14 Sudoeste 33 Oeste 0 -- -- 28
2019-06-12 15:00:00 17.5 15 Sudoeste 34 Sudoeste 0 -- -- 31
2019-06-12 14:00:00 16.8 10 Sudoeste 26 Sudoeste 0 -- -- 32
2019-06-12 13:00:00 15.5 10 Sudoeste 24 Oeste 0 -- -- 35
2019-06-12 12:00:00 14.8 6 Sudoeste 23 Sur 0 -- -- 41
2019-06-12 11:00:00 13 12 Sur 24 Sur 0 -- -- 43
2019-06-12 10:00:00 10.8 10 Sudoeste 22 Sudoeste 0 -- -- 50
2019-06-12 09:00:00 7.3 7 Sur 22 Sur 0 -- -- 65
2019-06-12 08:00:00 2 2 Nordeste 4 Este 0 -- -- 92
2019-06-12 07:00:00 1.3 3 Nordeste 4 Nordeste 0 -- -- 89
2019-06-12 06:00:00 1.5 0 Calma 9 Nordeste 0 -- -- 88
2019-06-12 05:00:00 2.2 3 Nordeste 5 Nordeste 0 -- -- 87
2019-06-12 04:00:00 3.1 3 Nordeste 5 Norte 0 -- -- 83
2019-06-12 03:00:00 4.5 3 Nordeste 9 Este 0 -- -- 79
2019-06-12 02:00:00 4.7 3 Nordeste 7 Este 0 -- -- 80
2019-06-12 01:00:00 5.9 3 Este 6 Nordeste 0 -- -- 74
2019-06-12 00:00:00 6.8 0 Calma 6 Este 0 -- -- 68
2019-06-11 23:00:00 7.6 3 Sudeste 8 Este 0 -- -- 69
2019-06-11 22:00:00 9.2 4 Este 11 Nordeste 0 -- -- 62
2019-06-11 21:00:00 11.1 4 Nordeste 14 Norte 0 -- -- 50
2019-06-11 20:00:00 13.6 5 Nordeste 24 Nordeste 0 -- -- 47
2019-06-11 19:00:00 12.5 14 Norte 26 Nordeste 0 -- -- 50
2019-06-11 18:00:00 13.6 13 Norte 28 Norte 0 -- -- 44
2019-06-11 17:00:00 12.6 9 Nordeste 21 Nordeste 0 -- -- 55
2019-06-11 16:00:00 9.8 13 Norte 36 Norte 0 -- -- 69
2019-06-11 15:00:00 12.5 6 Este 27 Norte 0 -- -- 57
2019-06-11 14:00:00 9.6 8 Nordeste 21 Nordeste 0 -- -- 72
2019-06-11 13:00:00 7.9 7 Nordeste 20 Nordeste 0 -- -- 81
2019-06-11 12:00:00 7 9 Nordeste 20 Nordeste 0 -- -- 86
2019-06-11 11:00:00 7.9 9 Nordeste 20 Nordeste 0 -- -- 80
2019-06-11 10:00:00 8 8 Nordeste 19 Nordeste 0 -- -- 75
2019-06-11 09:00:00 7.6 7 Nordeste 19 Nordeste 0 -- -- 72
2019-06-11 08:00:00 7.4 9 Nordeste 19 Nordeste 0 -- -- 72
2019-06-11 07:00:00 7.5 5 Nordeste 15 Este 0 -- -- 73
2019-06-11 06:00:00 8.2 4 Nordeste 13 Este 0 -- -- 72
2019-06-11 05:00:00 8.5 3 Nordeste 9 Nordeste 0 -- -- 72
2019-06-11 04:00:00 8.6 3 Este 9 Este 0 -- -- 72
2019-06-11 03:00:00 8.9 3 Este 13 Este 0 -- -- 71
2019-06-11 02:00:00 9.2 4 Nordeste 13 Nordeste 0 -- -- 70
2019-06-11 01:00:00 9.9 4 Nordeste 14 Este 0 -- -- 67
2019-06-11 00:00:00 11.3 4 Nordeste 14 Nordeste 0 -- -- 61
2019-06-10 23:00:00 13.4 5 Nordeste 19 Nordeste 0 -- -- 48
2019-06-10 22:00:00 15.6 5 Norte 13 Nordeste 0 -- -- 40
2019-06-10 21:00:00 17.3 9 Norte 23 Oeste 0 -- -- 37
2019-06-10 20:00:00 19.6 13 Oeste 27 Oeste 0 -- -- 30
2019-06-10 19:00:00 21.1 9 Oeste 28 Oeste 0 -- -- 30
2019-06-10 18:00:00 21.1 11 Oeste 29 Sudoeste 0 -- -- 33
2019-06-10 17:00:00 20.1 8 Noroeste 27 Oeste 0 -- -- 38
2019-06-10 16:00:00 20.5 12 Oeste 29 Oeste 0 -- -- 35
2019-06-10 15:00:00 19.8 10 Oeste 26 Noroeste 0 -- -- 37
2019-06-10 14:00:00 19 10 Noroeste 22 Oeste 0 -- -- 40
2019-06-10 13:00:00 18.4 8 Oeste 23 Oeste 0 -- -- 45
2019-06-10 12:00:00 16.8 8 Oeste 19 Noroeste 0 -- -- 50
2019-06-10 11:00:00 14.7 8 Norte 17 Norte 0 -- -- 60
2019-06-10 10:00:00 12.3 4 Norte 9 Nordeste 0 -- -- 74
2019-06-10 09:00:00 9.8 4 Nordeste 11 Nordeste 0 -- -- 83
2019-06-10 08:00:00 8.3 4 Este 8 Este 0 -- -- 89
2019-06-10 07:00:00 7.6 2 Nordeste 7 Nordeste 0 -- -- 87
2019-06-10 06:00:00 8.3 0 Calma 5 Este 0 -- -- 79
2019-06-10 05:00:00 9.3 2 Este 6 Este 0 -- -- 79
2019-06-10 04:00:00 9.9 0 Calma 6 Nordeste 0 -- -- 70
2019-06-10 03:00:00 10.9 4 Norte 12 Norte 0 -- -- 73
2019-06-10 02:00:00 12.2 4 Noroeste 10 Norte 0 -- -- 51
2019-06-10 01:00:00 13.9 8 Sur 16 Sudoeste 0 -- -- 35
2019-06-10 00:00:00 15.7 9 Sudoeste 17 Sudoeste 0 -- -- 29
2019-06-09 23:00:00 16.5 6 Sudoeste 12 Sudoeste 0 -- -- 32
2019-06-09 22:00:00 18.2 6 Oeste 15 Oeste 0 -- -- 31
2019-06-09 21:00:00 20.4 10 Sudoeste 29 Sudoeste 0 -- -- 28
2019-06-09 20:00:00 23.3 12 Sudoeste 32 Sudoeste 0 -- -- 23
2019-06-09 19:00:00 23.6 17 Sudoeste 37 Sudoeste 0 -- -- 22
2019-06-09 18:00:00 23.3 10 Sudoeste 36 Sudoeste 0 -- -- 26
2019-06-09 17:00:00 23.2 21 Sudoeste 39 Sudoeste 0 -- -- 27
2019-06-09 16:00:00 22.1 15 Sudoeste 33 Sudoeste 0 -- -- 30
2019-06-09 15:00:00 21.9 15 Sudoeste 33 Sudoeste 0 -- -- 31
2019-06-09 14:00:00 21.8 19 Sudoeste 37 Sudoeste 0 -- -- 33
2019-06-09 13:00:00 21 17 Oeste 33 Oeste 0 -- -- 37
2019-06-09 12:00:00 20.2 14 Oeste 30 Oeste 0 -- -- 41
2019-06-09 11:00:00 18.6 12 Oeste 24 Oeste 0 -- -- 46
2019-06-09 10:00:00 16.5 8 Sudoeste 24 Sudoeste 0 -- -- 56
2019-06-09 09:00:00 14.5 9 Sudoeste 26 Sur 0 -- -- 61
2019-06-09 08:00:00 12.1 11 Sudoeste 20 Sur 0 -- -- 67
2019-06-09 07:00:00 11.2 9 Sudoeste 20 Sur 0 -- -- 69
2019-06-09 06:00:00 11.4 14 Sur 23 Sur 0 -- -- 70
2019-06-09 05:00:00 12.4 15 Sur 23 Sudoeste 0 -- -- 67
2019-06-09 04:00:00 13.3 7 Sur 13 Sur 0 -- -- 65
2019-06-09 03:00:00 13.5 2 Nordeste 7 Sudoeste 0 -- -- 63
2019-06-09 02:00:00 14.1 3 Sur 12 Sur 0 -- -- 62
2019-06-09 01:00:00 14.6 2 Sudeste 17 Sur 0 -- -- 59
2019-06-09 00:00:00 15.3 4 Sur 13 Sudeste 0 -- -- 56
2019-06-08 23:00:00 16.4 6 Sur 15 Sudeste 0 -- -- 54
2019-06-08 22:00:00 18.4 4 Sudeste 21 Sur 0 -- -- 50
2019-06-08 21:00:00 20.1 12 Sur 25 Sur 0 -- -- 45
2019-06-08 20:00:00 21.5 13 Sudoeste 26 Sur 0 -- -- 42
2019-06-08 19:00:00 23.3 13 Sudoeste 33 Sudoeste 0 -- -- 38
2019-06-08 18:00:00 23.9 20 Sudoeste 35 Sudoeste 0 -- -- 35
2019-06-08 17:00:00 23.6 17 Sudoeste 36 Sur 0 -- -- 35
2019-06-08 16:00:00 23 17 Sudoeste 42 Sur 0 -- -- 34
2019-06-08 15:00:00 23 16 Sur 40 Sudoeste 0 -- -- 32
2019-06-08 14:00:00 21.9 15 Sudoeste 38 Sudoeste 0 -- -- 38
2019-06-08 13:00:00 20.8 14 Sudoeste 35 Sudoeste 0 -- -- 40
2019-06-08 12:00:00 17.7 5 Sur 15 Sudoeste 0 -- -- 46
2019-06-08 11:00:00 15.1 6 Nordeste 11 Norte 0 -- -- 51
2019-06-08 10:00:00 11.3 6 Nordeste 13 Nordeste 0 -- -- 59
2019-06-08 09:00:00 8.1 5 Nordeste 10 Este 0 -- -- 66
2019-06-08 08:00:00 5.3 4 Nordeste 9 Nordeste 0 -- -- 70
2019-06-08 07:00:00 4.9 4 Nordeste 12 Este 0 -- -- 70
2019-06-08 06:00:00 5.1 7 Este 11 Nordeste 0 -- -- 69
2019-06-08 05:00:00 5.6 4 Este 11 Nordeste 0 -- -- 68
2019-06-08 04:00:00 6.1 5 Nordeste 14 Nordeste 0 -- -- 65
2019-06-08 03:00:00 7 3 Nordeste 14 Nordeste 0 -- -- 63
2019-06-08 02:00:00 8.5 5 Este 9 Nordeste 0 -- -- 56
2019-06-08 01:00:00 9.6 5 Este 9 Este 0 -- -- 52
2019-06-08 00:00:00 10.5 4 Este 9 Este 0 -- -- 49
2019-06-07 23:00:00 11.7 3 Nordeste 15 Norte 0 -- -- 46
2019-06-07 22:00:00 13.6 2 Sudoeste 12 Oeste 0 -- -- 38
2019-06-07 21:00:00 15.4 5 Noroeste 17 Oeste 0 -- -- 32
2019-06-07 20:00:00 17.9 8 Noroeste 20 Oeste 0 -- -- 29
2019-06-07 19:00:00 18.9 6 Oeste 25 Oeste 0 -- -- 29
2019-06-07 18:00:00 18.5 12 Oeste 33 Oeste 0 -- -- 29
2019-06-07 17:00:00 17.9 8 Sudoeste 28 Noroeste 0 -- -- 29
2019-06-07 16:00:00 17.3 12 Oeste 28 Oeste 0 -- -- 30
2019-06-07 15:00:00 16 11 Oeste 33 Oeste 0 -- -- 36
2019-06-07 14:00:00 14.9 9 Oeste 28 Oeste 0 -- -- 37
2019-06-07 13:00:00 13.8 10 Oeste 27 Oeste 0 -- -- 46
2019-06-07 12:00:00 12 11 Oeste 27 Sudoeste 0 -- -- 53
2019-06-07 11:00:00 10.1 12 Oeste 31 Oeste 0 -- -- 61
2019-06-07 10:00:00 8.8 15 Oeste 34 Oeste 0 -- -- 71
2019-06-07 09:00:00 8.1 14 Oeste 37 Oeste 0 -- -- 87
2019-06-07 08:00:00 8.7 18 Sudoeste 51 Oeste 0 -- -- 91
2019-06-07 07:00:00 10 18 Oeste 46 Sudoeste 0 -- -- 88
2019-06-07 06:00:00 11 23 Sudoeste 46 Sudoeste 0 -- -- 73
2019-06-07 05:00:00 10.6 18 Sudoeste 45 Sudoeste 0 -- -- 67
2019-06-07 04:00:00 11.5 22 Sudoeste 50 Sudoeste 0 -- -- 53
2019-06-07 03:00:00 12.4 26 Sudoeste 49 Sudoeste 0 -- -- 47
2019-06-07 02:00:00 12.8 21 Sudoeste 37 Sudoeste 0 -- -- 42
2019-06-07 01:00:00 13.3 17 Sudoeste 34 Oeste 0 -- -- 40
2019-06-07 00:00:00 14.6 20 Sudoeste 36 Sudoeste 0 -- -- 39
2019-06-06 23:00:00 15.2 15 Sudoeste 36 Sudoeste 0 -- -- 38
2019-06-06 22:00:00 16.5 14 Sudoeste 40 Sudoeste 0 -- -- 36
2019-06-06 21:00:00 18 19 Sudoeste 53 Sudoeste 0 -- -- 32
2019-06-06 20:00:00 19.8 23 Sudoeste 59 Sudoeste 0 -- -- 30
2019-06-06 19:00:00 20.3 31 Sudoeste 51 Sudoeste 0 -- -- 29
2019-06-06 18:00:00 20.1 31 Sudoeste 58 Sudoeste 0 -- -- 28
2019-06-06 17:00:00 19.8 27 Sudoeste 59 Sudoeste 0 -- -- 28
2019-06-06 16:00:00 18.2 24 Sudoeste 50 Sudoeste 0 -- -- 29
2019-06-06 15:00:00 17.3 21 Sudoeste 47 Sudoeste 0 -- -- 33
2019-06-06 14:00:00 16.6 19 Sudoeste 45 Sudoeste 0 -- -- 35
2019-06-06 13:00:00 16.1 22 Sudoeste 45 Sudoeste 0 -- -- 40
2019-06-06 12:00:00 15.1 17 Sudoeste 45 Sudoeste 0 -- -- 42
2019-06-06 11:00:00 13.5 16 Sudoeste 31 Sur 0 -- -- 47
2019-06-06 10:00:00 11.8 15 Sudoeste 27 Sudoeste 0 -- -- 50
2019-06-06 09:00:00 7.9 6 Sur 15 Sur 0 -- -- 66
2019-06-06 08:00:00 5.4 2 Sur 10 Sur 0 -- -- 74
2019-06-06 07:00:00 4.4 5 Sur 13 Sur 0 -- -- 70
2019-06-06 06:00:00 4.8 2 Sudeste 8 Sur 0 -- -- 70
2019-06-06 05:00:00 5.4 2 Sudeste 6 Sur 0 -- -- 67
2019-06-06 04:00:00 6.2 5 Sur 6 Sur 0 -- -- 64
2019-06-06 03:00:00 7.1 5 Sudoeste 10 Sur 0 -- -- 59
2019-06-06 02:00:00 7.9 5 Sur 8 Sur 0 -- -- 57
2019-06-06 01:00:00 8.9 5 Sudoeste 10 Sudoeste 0 -- -- 54
2019-06-06 00:00:00 10 3 Sudoeste 8 Sudoeste 0 -- -- 50
2019-06-05 23:00:00 10.6 4 Oeste 9 Oeste 0 -- -- 47
2019-06-05 22:00:00 11.9 4 Oeste 16 Sudoeste 0 -- -- 44
2019-06-05 21:00:00 13.7 6 Oeste 18 Oeste 0 -- -- 40
2019-06-05 20:00:00 14.9 6 Oeste 18 Oeste 0 -- -- 40
2019-06-05 19:00:00 15.9 9 Noroeste 23 Oeste 0 -- -- 40
2019-06-05 18:00:00 15.1 8 Noroeste 23 Oeste 0 -- -- 45
2019-06-05 17:00:00 14.7 10 Noroeste 28 Noroeste 0 -- -- 46
2019-06-05 16:00:00 14.2 15 Norte 28 Norte 0 -- -- 54
2019-06-05 15:00:00 13.7 10 Noroeste 33 Oeste 0 -- -- 50
2019-06-05 14:00:00 12.7 12 Oeste 27 Oeste 0 -- -- 63
2019-06-05 13:00:00 10.7 15 Noroeste 35 Noroeste 0 -- -- 69
2019-06-05 12:00:00 8.4 12 Noroeste 50 Oeste 0 -- -- 81
2019-06-05 11:00:00 10.8 16 Oeste 38 Sudoeste 0 -- -- 75
2019-06-05 10:00:00 10 16 Sudoeste 38 Sudoeste 0 -- -- 81
2019-06-05 09:00:00 10.3 19 Sudoeste 43 Sudoeste 0 -- -- 85
2019-06-05 08:00:00 9.9 22 Sudoeste 40 Sur 0 -- -- 89
2019-06-05 07:00:00 10.7 18 Sudoeste 38 Sudoeste 0 -- -- 89
2019-06-05 06:00:00 11.6 16 Sudoeste 35 Sudoeste 0 -- -- 86
2019-06-05 05:00:00 13 11 Sudoeste 28 Sudoeste 0 -- -- 79
2019-06-05 04:00:00 14.8 12 Sudoeste 28 Sudoeste 0 -- -- 62
2019-06-05 03:00:00 15.4 12 Sudoeste 21 Sudoeste 0 -- -- 57
2019-06-05 02:00:00 16.5 10 Sudoeste 20 Sur 0 -- -- 53
2019-06-05 01:00:00 16.7 5 Sur 9 Sudoeste 0 -- -- 52
2019-06-05 00:00:00 17.5 5 Sur 15 Oeste 0 -- -- 49
2019-06-04 23:00:00 18.9 10 Oeste 26 Oeste 0 -- -- 45
2019-06-04 22:00:00 20.4 15 Sudoeste 31 Oeste 0 -- -- 37
2019-06-04 21:00:00 22.1 15 Sudoeste 41 Oeste 0 -- -- 36
2019-06-04 20:00:00 24.6 20 Sudoeste 43 Oeste 0 -- -- 33
2019-06-04 19:00:00 25.6 22 Sudoeste 46 Sudoeste 0 -- -- 31
2019-06-04 18:00:00 25.6 26 Sudoeste 47 Sudoeste 0 -- -- 30
2019-06-04 17:00:00 25.4 23 Sudoeste 54 Sur 0 -- -- 29
2019-06-04 16:00:00 26.1 22 Sudoeste 44 Sudoeste 0 -- -- 29
2019-06-04 15:00:00 25.5 21 Sudoeste 46 Sudoeste 0 -- -- 28
2019-06-04 14:00:00 24.5 25 Sudoeste 54 Oeste 0 -- -- 30
2019-06-04 13:00:00 24 23 Sudoeste 46 Sudoeste 0 -- -- 32
2019-06-04 12:00:00 22.7 24 Sudoeste 46 Sudoeste 0 -- -- 36
2019-06-04 11:00:00 21.4 21 Sudoeste 36 Oeste 0 -- -- 41
2019-06-04 10:00:00 19.8 14 Sudoeste 32 Sur 0 -- -- 44
2019-06-04 09:00:00 17.8 19 Sudoeste 34 Sur 0 -- -- 48
2019-06-04 08:00:00 15.4 15 Sur 25 Sur 0 -- -- 54
2019-06-04 07:00:00 14.2 14 Sur 23 Sudoeste 0 -- -- 57
2019-06-04 06:00:00 15 17 Sur 27 Sudoeste 0 -- -- 56
2019-06-04 05:00:00 15.3 17 Sudoeste 26 Sur 0 -- -- 55
2019-06-04 04:00:00 15.8 16 Sur 24 Sur 0 -- -- 53
2019-06-04 03:00:00 15.7 17 Sur 22 Sur 0 -- -- 49
2019-06-04 02:00:00 16.9 13 Sur 21 Sur 0 -- -- 37
2019-06-04 01:00:00 17.1 12 Sur 24 Sur 0 -- -- 34
2019-06-04 00:00:00 18 10 Sur 18 Sur 0 -- -- 33
2019-06-03 23:00:00 21.3 6 Sudoeste 17 Sudoeste 0 -- -- 28
2019-06-03 22:00:00 23.3 10 Sudoeste 24 Sudoeste 0 -- -- 24
2019-06-03 21:00:00 25.3 14 Sudoeste 32 Sudoeste 0 -- -- 22
2019-06-03 20:00:00 27.7 18 Sudoeste 37 Sudoeste 0 -- -- 20
2019-06-03 19:00:00 28.4 17 Sudoeste 43 Sudoeste 0 -- -- 19
2019-06-03 18:00:00 28.3 22 Sudoeste 44 Sur 0 -- -- 19
2019-06-03 17:00:00 28.6 22 Sudoeste 42 Sudoeste 0 -- -- 21
2019-06-03 16:00:00 28.2 20 Sudoeste 42 Oeste 0 -- -- 23
2019-06-03 15:00:00 27.5 20 Sudoeste 43 Sur 0 -- -- 25
2019-06-03 14:00:00 26.8 19 Sudoeste 40 Sudoeste 0 -- -- 26
2019-06-03 13:00:00 24.9 16 Sudoeste 31 Sudoeste 0 -- -- 34
2019-06-03 12:00:00 24.8 15 Sudoeste 30 Sur 0 -- -- 32
2019-06-03 11:00:00 23.4 10 Sudoeste 22 Sudoeste 0 -- -- 34
2019-06-03 10:00:00 20.8 9 Sudoeste 24 Sur 0 -- -- 38
2019-06-03 09:00:00 19.1 12 Sur 24 Sur 0 -- -- 39
2019-06-03 08:00:00 16.8 8 Sudoeste 17 Sudoeste 0 -- -- 44
2019-06-03 07:00:00 16.6 3 Sudoeste 19 Sur 0 -- -- 42
2019-06-03 06:00:00 16.8 11 Sudoeste 28 Sur 0 -- -- 42
2019-06-03 05:00:00 17 17 Sur 27 Sur 0 -- -- 42
2019-06-03 04:00:00 16.4 15 Sur 23 Sur 0 -- -- 46
2019-06-03 03:00:00 17.3 10 Sur 18 Sur 0 -- -- 45
2019-06-03 02:00:00 17 11 Sur 19 Sur 0 -- -- 45
2019-06-03 01:00:00 18.8 5 Sur 14 Noroeste 0 -- -- 41
2019-06-03 00:00:00 19.9 8 Norte 18 Sudoeste 0 -- -- 38
2019-06-02 23:00:00 19.4 15 Sur 19 Sur 0 -- -- 39
2019-06-02 22:00:00 22.4 13 Sur 18 Sudoeste 0 -- -- 33
2019-06-02 21:00:00 25.7 9 Sudoeste 20 Sudoeste 0 -- -- 28
2019-06-02 20:00:00 28.9 9 Oeste 20 Oeste 0 -- -- 24
2019-06-02 19:00:00 28.3 3 Oeste 22 Sudoeste 0 -- -- 23
2019-06-02 18:00:00 29.3 12 Oeste 26 Sudoeste 0 -- -- 21
2019-06-02 17:00:00 27.4 6 Oeste 29 Oeste 0 -- -- 24
2019-06-02 16:00:00 27.9 12 Noroeste 27 Oeste 0 -- -- 25
2019-06-02 15:00:00 27.8 14 Sudoeste 26 Oeste 0 -- -- 25
2019-06-02 14:00:00 27.3 11 Oeste 23 Sudoeste 0 -- -- 28
2019-06-02 13:00:00 25.9 12 Oeste 23 Sudoeste 0 -- -- 29
2019-06-02 12:00:00 24.5 12 Sudoeste 24 Sudoeste 0 -- -- 30
2019-06-02 11:00:00 22.8 13 Sudoeste 29 Sudoeste 0 -- -- 36
2019-06-02 10:00:00 19.7 7 Sudoeste 20 Sur 0 -- -- 44
2019-06-02 09:00:00 15.9 4 Oeste 8 Sur 0 -- -- 54
2019-06-02 08:00:00 15.4 4 Sur 17 Sur 0 -- -- 55
2019-06-02 07:00:00 14.2 10 Sur 21 Sur 0 -- -- 52
2019-06-02 06:00:00 14.4 12 Sur 21 Sur 0 -- -- 51
2019-06-02 05:00:00 14.5 9 Sur 24 Sur 0 -- -- 51
2019-06-02 04:00:00 15.1 15 Sur 26 Sur 0 -- -- 50
2019-06-02 03:00:00 16 17 Sur 28 Sudoeste 0 -- -- 48
2019-06-02 02:00:00 17.1 18 Sur 27 Sudoeste 0 -- -- 44
2019-06-02 01:00:00 17.8 19 Sur 28 Sur 0 -- -- 42
2019-06-02 00:00:00 18.4 15 Sur 25 Sur 0 -- -- 41
2019-06-01 23:00:00 21.1 4 Nordeste 18 Este 0 -- -- 40
2019-06-01 22:00:00 23 7 Este 17 Sudeste 0 -- -- 30
2019-06-01 21:00:00 25.1 8 Noroeste 13 Noroeste 0 -- -- 25
2019-06-01 20:00:00 27.9 6 Oeste 16 Noroeste 0 -- -- 24
2019-06-01 19:00:00 28.5 3 Noroeste 20 Oeste 0 -- -- 24
2019-06-01 18:00:00 28.1 5 Noroeste 14 Noroeste 0 -- -- 23
2019-06-01 17:00:00 27.9 8 Nordeste 20 Noroeste 0 -- -- 25
2019-06-01 16:00:00 27.6 5 Sudoeste 26 Oeste 0 -- -- 25
2019-06-01 15:00:00 26.3 5 Sudeste 20 Noroeste 0 -- -- 28
2019-06-01 14:00:00 26.1 8 Sudoeste 20 Oeste 0 -- -- 33
2019-06-01 13:00:00 24.4 4 Sudoeste 19 Oeste 0 -- -- 37
2019-06-01 12:00:00 22.8 8 Oeste 16 Oeste 0 -- -- 42
2019-06-01 11:00:00 21 5 Oeste 15 Sudoeste 0 -- -- 46
2019-06-01 10:00:00 17.2 3 Noroeste 8 Sur 0 -- -- 60
2019-06-01 09:00:00 12.6 3 Nordeste 6 Nordeste 0 -- -- 71
2019-06-01 08:00:00 11 3 Nordeste 6 Sudeste 0 -- -- 72
2019-06-01 07:00:00 11 3 Sur 7 Sur 0 -- -- 70
2019-06-01 06:00:00 11.4 2 Este 8 Sudoeste 0 -- -- 67
2019-06-01 05:00:00 12.2 2 Sudoeste 8 Sudoeste 0 -- -- 65
2019-06-01 04:00:00 13.1 4 Sudoeste 20 Sur 0 -- -- 62
2019-06-01 03:00:00 13.9 14 Sur 24 Sudoeste 0 -- -- 61
2019-06-01 02:00:00 14.6 13 Sur 19 Sudoeste 0 -- -- 54
2019-06-01 01:00:00 16.2 12 Sur 15 Sudoeste 0 -- -- 47
2019-06-01 00:00:00 17.7 3 Este 14 Este 0 -- -- 43
2019-05-31 23:00:00 19.2 6 Este 19 Nordeste 0 -- -- 39
2019-05-31 22:00:00 20.8 9 Este 23 Este 0 -- -- 39
2019-05-31 21:00:00 23.1 6 Nordeste 22 Nordeste 0 -- -- 28
2019-05-31 20:00:00 27.3 7 Nordeste 19 Norte 0 -- -- 22
2019-05-31 19:00:00 28.2 4 Nordeste 13 Nordeste 0 -- -- 21
2019-05-31 18:00:00 27.7 5 Sudoeste 19 Nordeste 0 -- -- 21
2019-05-31 17:00:00 26.9 6 Norte 18 Nordeste 0 -- -- 22
2019-05-31 16:00:00 26.3 7 Nordeste 22 Nordeste 0 -- -- 22
2019-05-31 15:00:00 25.1 4 Este 21 Nordeste 0 -- -- 21
2019-05-31 14:00:00 24.3 6 Nordeste 18 Norte 0 -- -- 24
2019-05-31 13:00:00 22.9 7 Noroeste 17 Noroeste 0 -- -- 29
2019-05-31 12:00:00 21.8 5 Oeste 14 Oeste 0 -- -- 38
2019-05-31 11:00:00 19.4 6 Oeste 13 Oeste 0 -- -- 44
2019-05-31 10:00:00 15.3 2 Nordeste 7 Nordeste 0 -- -- 61
2019-05-31 09:00:00 11 0 Calma 5 Nordeste 0 -- -- 70
2019-05-31 08:00:00 8.4 2 Este 5 Nordeste 0 -- -- 73
2019-05-31 07:00:00 8.6 2 Sur 10 Sur 0 -- -- 66
2019-05-31 06:00:00 8.9 3 Sudeste 6 Sur 0 -- -- 65
2019-05-31 05:00:00 9.6 0 Calma 9 Sur 0 -- -- 63
2019-05-31 04:00:00 10.7 6 Sur 15 Sur 0 -- -- 59
2019-05-31 03:00:00 11 12 Sur 17 Sur 0 -- -- 58
2019-05-31 02:00:00 12.4 5 Sur 10 Sur 0 -- -- 53
2019-05-31 01:00:00 14.3 3 Sudeste 11 Este 0 -- -- 47
2019-05-31 00:00:00 15.3 6 Este 12 Este 0 -- -- 45
2019-05-30 23:00:00 16.6 6 Este 16 Este 0 -- -- 38
2019-05-30 22:00:00 18.4 5 Nordeste 17 Este 0 -- -- 37
2019-05-30 21:00:00 21.1 8 Nordeste 19 Nordeste 0 -- -- 35
2019-05-30 20:00:00 24.4 9 Nordeste 21 Nordeste 0 -- -- 29
2019-05-30 19:00:00 25.4 9 Nordeste 22 Nordeste 0 -- -- 23
2019-05-30 18:00:00 25.1 8 Norte 24 Nordeste 0 -- -- 23
2019-05-30 17:00:00 25.4 8 Nordeste 22 Este 0 -- -- 24
2019-05-30 16:00:00 24.5 9 Nordeste 23 Nordeste 0 -- -- 30
2019-05-30 15:00:00 23.2 7 Este 19 Nordeste 0 -- -- 28
2019-05-30 14:00:00 22.1 8 Nordeste 25 Este 0 -- -- 35
2019-05-30 13:00:00 20.4 5 Nordeste 16 Nordeste 0 -- -- 42
2019-05-30 12:00:00 18.4 8 Nordeste 21 Norte 0 -- -- 47
2019-05-30 11:00:00 15.4 12 Nordeste 21 Nordeste 0 -- -- 56
2019-05-30 10:00:00 12.2 6 Nordeste 13 Nordeste 0 -- -- 64
2019-05-30 09:00:00 8.5 5 Nordeste 9 Nordeste 0 -- -- 76
2019-05-30 08:00:00 6.5 2 Nordeste 12 Este 0 -- -- 85
2019-05-30 07:00:00 5.4 7 Este 11 Nordeste 0 -- -- 86
2019-05-30 06:00:00 6.1 3 Nordeste 12 Este 0 -- -- 81
2019-05-30 05:00:00 6.6 6 Este 12 Este 0 -- -- 80
2019-05-30 04:00:00 7.3 4 Este 10 Este 0 -- -- 77
2019-05-30 03:00:00 8.2 5 Este 13 Nordeste 0 -- -- 74
2019-05-30 02:00:00 8.8 3 Nordeste 14 Norte 0 -- -- 70
2019-05-30 01:00:00 9.6 3 Nordeste 14 Norte 0 -- -- 67
2019-05-30 00:00:00 10.4 3 Nordeste 22 Norte 0 -- -- 63
2019-05-29 23:00:00 11.4 9 Nordeste 19 Nordeste 0 -- -- 62
2019-05-29 22:00:00 12.8 10 Nordeste 28 Norte 0 -- -- 57
2019-05-29 21:00:00 14.6 17 Nordeste 33 Norte 0 -- -- 51
2019-05-29 20:00:00 17.6 14 Nordeste 33 Norte 0 -- -- 44
2019-05-29 19:00:00 18.5 15 Nordeste 44 Norte 0 -- -- 43
2019-05-29 18:00:00 18.7 18 Nordeste 37 Nordeste 0 -- -- 43
2019-05-29 17:00:00 18.1 21 Nordeste 36 Nordeste 0 -- -- 44
2019-05-29 16:00:00 17.7 21 Nordeste 41 Norte 0 -- -- 46
2019-05-29 15:00:00 16.8 19 Nordeste 36 Nordeste 0 -- -- 46
2019-05-29 14:00:00 15.7 19 Norte 36 Norte 0 -- -- 49
2019-05-29 13:00:00 14.7 18 Nordeste 37 Nordeste 0 -- -- 54
2019-05-29 12:00:00 13.3 14 Nordeste 36 Nordeste 0 -- -- 56
2019-05-29 11:00:00 11.7 15 Nordeste 46 Nordeste 0 -- -- 60
2019-05-29 10:00:00 10.3 15 Nordeste 35 Nordeste 0 -- -- 65
2019-05-29 09:00:00 7.4 12 Nordeste 28 Nordeste 0 -- -- 73
2019-05-29 08:00:00 5.3 7 Nordeste 23 Nordeste 0 -- -- 78
2019-05-29 07:00:00 4.3 5 Nordeste 18 Nordeste 0 -- -- 78
2019-05-29 06:00:00 4.3 8 Nordeste 21 Este 0 -- -- 78
2019-05-29 05:00:00 4.4 5 Nordeste 21 Nordeste 0 -- -- 76
2019-05-29 04:00:00 4.9 12 Nordeste 28 Nordeste 0 -- -- 74
2019-05-29 03:00:00 5.3 10 Nordeste 22 Nordeste 0 -- -- 77
2019-05-29 02:00:00 5.9 9 Nordeste 22 Nordeste 0 -- -- 75
2019-05-29 01:00:00 6.4 5 Nordeste 16 Nordeste 0 -- -- 74
2019-05-29 00:00:00 7.7 4 Este 15 Nordeste 0 -- -- 66
2019-05-28 23:00:00 8.8 9 Nordeste 24 Nordeste 0 -- -- 62
2019-05-28 22:00:00 10.1 9 Nordeste 34 Nordeste 0 -- -- 59
2019-05-28 21:00:00 12.5 15 Nordeste 30 Norte 0 -- -- 52
2019-05-28 20:00:00 15.9 15 Nordeste 32 Norte 0 -- -- 44
2019-05-28 19:00:00 18.1 14 Nordeste 31 Nordeste 0 -- -- 42
2019-05-28 18:00:00 18.6 14 Nordeste 30 Nordeste 0 -- -- 40
2019-05-28 17:00:00 18.4 12 Norte 31 Norte 0 -- -- 39
2019-05-28 16:00:00 17.5 13 Norte 29 Nordeste 0 -- -- 36
2019-05-28 15:00:00 17 9 Nordeste 26 Norte 0 -- -- 40
2019-05-28 14:00:00 16.1 11 Nordeste 26 Norte 0 -- -- 42
2019-05-28 13:00:00 14.6 12 Nordeste 24 Norte 0 -- -- 43
2019-05-28 12:00:00 13.6 10 Nordeste 24 Nordeste 0 -- -- 47
2019-05-28 11:00:00 12.3 8 Nordeste 19 Nordeste 0 -- -- 54
2019-05-28 10:00:00 9.6 8 Nordeste 21 Este 0 -- -- 61
2019-05-28 09:00:00 7.2 8 Nordeste 17 Nordeste 0 -- -- 77
2019-05-28 08:00:00 5.6 3 Nordeste 8 Este 0 -- -- 90
2019-05-28 07:00:00 5.8 3 Nordeste 12 Nordeste 0 -- -- 86
2019-05-28 06:00:00 6.9 3 Este 7 Este 0 -- -- 89
2019-05-28 05:00:00 7.5 3 Nordeste 6 Nordeste 0 -- -- 87
2019-05-28 04:00:00 8.1 3 Nordeste 16 Nordeste 0 -- -- 85
2019-05-28 03:00:00 8.7 3 Nordeste 16 Nordeste 0 -- -- 86
2019-05-28 02:00:00 9.5 8 Nordeste 18 Este 0 -- -- 85
2019-05-28 01:00:00 10.6 10 Nordeste 22 Nordeste 0 -- -- 81
2019-05-28 00:00:00 11.8 7 Nordeste 23 Nordeste 0 -- -- 71
2019-05-27 23:00:00 13.2 6 Este 26 Norte 0 -- -- 66
2019-05-27 22:00:00 14.5 12 Nordeste 28 Nordeste 0 -- -- 62
2019-05-27 21:00:00 16.8 12 Nordeste 25 Nordeste 0 -- -- 57
2019-05-27 20:00:00 19.8 15 Nordeste 26 Norte 0 -- -- 48
2019-05-27 19:00:00 20.6 14 Nordeste 28 Norte 0 -- -- 43
2019-05-27 18:00:00 22 12 Noroeste 26 Norte 0 -- -- 37
2019-05-27 17:00:00 21.8 13 Noroeste 31 Noroeste 0 -- -- 35
2019-05-27 16:00:00 22.1 14 Norte 28 Norte 0 -- -- 34
2019-05-27 15:00:00 21.8 13 Noroeste 32 Oeste 0 -- -- 37
2019-05-27 14:00:00 20.2 7 Noroeste 28 Noroeste 0 -- -- 41
2019-05-27 13:00:00 19.5 15 Noroeste 34 Oeste 0 -- -- 41
2019-05-27 12:00:00 18.8 13 Nordeste 24 Nordeste 0 -- -- 46
2019-05-27 11:00:00 15.7 5 Nordeste 15 Nordeste 0 -- -- 58
2019-05-27 10:00:00 13.3 5 Nordeste 12 Norte 0 -- -- 67
2019-05-27 09:00:00 10.6 3 Nordeste 6 Nordeste 0 -- -- 74
2019-05-27 08:00:00 9.7 4 Este 10 Este 0 -- -- 77
2019-05-27 07:00:00 8.3 6 Este 9 Este 0 -- -- 78
2019-05-27 06:00:00 7.4 4 Este 10 Este 0 -- -- 79
2019-05-27 05:00:00 8.2 2 Este 12 Este 0 -- -- 77
2019-05-27 04:00:00 8.9 0 Calma 8 Sudeste 0 -- -- 74
2019-05-27 03:00:00 9.4 3 Nordeste 9 Este 0 -- -- 72
2019-05-27 02:00:00 10 4 Sudeste 9 Este 0 -- -- 70
2019-05-27 01:00:00 10.8 5 Este 12 Este 0 -- -- 68
2019-05-27 00:00:00 11 4 Este 12 Este 0 -- -- 67
2019-05-26 23:00:00 11.8 3 Nordeste 15 Nordeste 0 -- -- 60
2019-05-26 22:00:00 13.2 5 Nordeste 26 Norte 0 -- -- 55
2019-05-26 21:00:00 15.2 12 Norte 27 Nordeste 0 -- -- 48
2019-05-26 20:00:00 18.2 11 Norte 26 Nordeste 0 -- -- 38
2019-05-26 19:00:00 19.1 13 Nordeste 32 Nordeste 0 -- -- 37
2019-05-26 18:00:00 18.9 18 Nordeste 37 Nordeste 0 -- -- 39
2019-05-26 17:00:00 18.9 15 Nordeste 35 Nordeste 0 -- -- 40
2019-05-26 16:00:00 18.2 17 Norte 36 Norte 0 -- -- 44
2019-05-26 15:00:00 17.2 16 Nordeste 32 Nordeste 0 -- -- 47
2019-05-26 14:00:00 15.8 18 Nordeste 35 Norte 0 -- -- 49
2019-05-26 13:00:00 14.1 15 Nordeste 28 Norte 0 -- -- 56
2019-05-26 12:00:00 11 10 Nordeste 26 Nordeste 0 -- -- 67
2019-05-26 11:00:00 10 14 Nordeste 28 Nordeste 0 -- -- 69
2019-05-26 10:00:00 7.9 14 Norte 27 Nordeste 0 -- -- 77
2019-05-26 09:00:00 6.4 11 Nordeste 25 Nordeste 0 -- -- 81
2019-05-26 08:00:00 5.2 6 Nordeste 17 Nordeste 0 -- -- 86
2019-05-26 07:00:00 4.7 5 Nordeste 16 Nordeste 0 -- -- 88
2019-05-26 06:00:00 5.5 5 Nordeste 16 Nordeste 0 -- -- 87
2019-05-26 05:00:00 5.9 3 Nordeste 12 Nordeste 0 -- -- 89
2019-05-26 04:00:00 5.7 9 Nordeste 19 Nordeste 0 -- -- 90
2019-05-26 03:00:00 5.8 3 Nordeste 19 Nordeste 0 -- -- 86
2019-05-26 02:00:00 6.5 6 Nordeste 20 Norte 0 -- -- 84
2019-05-26 01:00:00 7.4 3 Nordeste 17 Nordeste 0 -- -- 82
2019-05-26 00:00:00 8.3 8 Nordeste 23 Nordeste 0 -- -- 78
2019-05-25 23:00:00 9.6 11 Nordeste 27 Nordeste 0 -- -- 73
2019-05-25 22:00:00 11.1 9 Nordeste 21 Norte 0 -- -- 67
2019-05-25 21:00:00 13.1 14 Nordeste 24 Norte 0 -- -- 60
2019-05-25 20:00:00 15.6 11 Nordeste 26 Nordeste 0 -- -- 52
2019-05-25 19:00:00 16.1 13 Nordeste 26 Nordeste 0 -- -- 52
2019-05-25 18:00:00 18.1 7 Nordeste 25 Nordeste 0 -- -- 48
2019-05-25 17:00:00 17.6 12 Nordeste 28 Nordeste 0 -- -- 50
2019-05-25 16:00:00 16.5 10 Nordeste 23 Nordeste 0 -- -- 55
2019-05-25 15:00:00 14.6 7 Nordeste 28 Nordeste 0 -- -- 61
2019-05-25 14:00:00 14.2 10 Nordeste 24 Norte 0 -- -- 62
2019-05-25 13:00:00 11.9 8 Nordeste 25 Nordeste 0 -- -- 68
2019-05-25 12:00:00 10.4 12 Nordeste 31 Nordeste 0 -- -- 71
2019-05-25 11:00:00 9.6 15 Nordeste 31 Norte 0 -- -- 76
2019-05-25 10:00:00 8.7 16 Nordeste 35 Norte 0 -- -- 77
2019-05-25 09:00:00 7.7 24 Nordeste 37 Nordeste 0 -- -- 80
2019-05-25 08:00:00 6.9 17 Nordeste 34 Nordeste 0 -- -- 83
2019-05-25 07:00:00 6.8 17 Nordeste 36 Norte 0 -- -- 82
2019-05-25 06:00:00 6.5 20 Nordeste 40 Nordeste 0 -- -- 84
2019-05-25 05:00:00 6.9 23 Nordeste 43 Norte 0 -- -- 83
2019-05-25 04:00:00 7.6 20 Nordeste 37 Norte 0 -- -- 84
2019-05-25 03:00:00 7.7 16 Nordeste 31 Nordeste 0 -- -- 85
2019-05-25 02:00:00 7.8 10 Norte 23 Norte 0 -- -- 85
2019-05-25 01:00:00 7.6 8 Nordeste 27 Nordeste 0 -- -- 84
2019-05-25 00:00:00 8.1 14 Nordeste 30 Nordeste 0 -- -- 81
2019-05-24 23:00:00 8.8 13 Nordeste 25 Nordeste 0 -- -- 79
2019-05-24 22:00:00 9.3 14 Nordeste 35 Nordeste 0 -- -- 77
2019-05-24 21:00:00 10.6 18 Norte 31 Norte 0 -- -- 70
2019-05-24 20:00:00 11.9 16 Nordeste 33 Norte 0 -- -- 67
2019-05-24 19:00:00 13.8 10 Nordeste 32 Nordeste 0 -- -- 64
2019-05-24 18:00:00 12.5 9 Nordeste 22 Nordeste 0 -- -- 76
2019-05-24 17:00:00 11.2 6 Nordeste 20 Nordeste 0 -- -- 86
2019-05-24 16:00:00 11 5 Nordeste 18 Este 0 -- -- 87
2019-05-24 15:00:00 10.8 10 Nordeste 23 Nordeste 0 -- -- 87
2019-05-24 14:00:00 11.1 9 Nordeste 27 Nordeste 0 -- -- 79
2019-05-24 13:00:00 10.9 11 Nordeste 31 Nordeste 0 -- -- 79
2019-05-24 12:00:00 10.6 9 Nordeste 29 Este 0 -- -- 82
2019-05-24 11:00:00 9.7 14 Este 27 Este 0 -- -- 86
2019-05-24 10:00:00 9.4 8 Este 26 Nordeste 0 -- -- 88
2019-05-24 09:00:00 9.5 8 Nordeste 26 Este 0 -- -- 92
2019-05-24 08:00:00 9.6 9 Nordeste 26 Este 0 -- -- 91
2019-05-24 07:00:00 10 6 Nordeste 23 Nordeste 0 -- -- 89
2019-05-24 06:00:00 10.6 6 Nordeste 22 Nordeste 0 -- -- 89
2019-05-24 05:00:00 10.8 6 Nordeste 24 Este 0 -- -- 86
2019-05-24 04:00:00 11.4 8 Este 16 Este 0 -- -- 82
2019-05-24 03:00:00 11.8 4 Nordeste 12 Nordeste 0 -- -- 80
2019-05-24 02:00:00 12.3 4 Nordeste 15 Nordeste 0 -- -- 79
2019-05-24 01:00:00 13.3 6 Nordeste 15 Este 0 -- -- 74
2019-05-24 00:00:00 14 6 Este 19 Este 0 -- -- 70
2019-05-23 23:00:00 15.3 7 Este 31 Norte 0 -- -- 63
2019-05-23 22:00:00 19.1 3 Noroeste 20 Sudoeste 0 -- -- 41
2019-05-23 21:00:00 20.2 6 Sudoeste 18 Sudoeste 0 -- -- 37
2019-05-23 20:00:00 21.5 11 Sudoeste 28 Oeste 0 -- -- 36
2019-05-23 19:00:00 21.6 12 Sudoeste 32 Sudoeste 0 -- -- 36
2019-05-23 18:00:00 21.9 15 Sudoeste 32 Sudoeste 0 -- -- 36
2019-05-23 17:00:00 22.5 15 Sudoeste 36 Sudoeste 0 -- -- 35
2019-05-23 16:00:00 22.5 13 Oeste 36 Oeste 0 -- -- 39
2019-05-23 15:00:00 21.2 18 Sudoeste 34 Sudoeste 0 -- -- 38
2019-05-23 14:00:00 20.6 15 Sudoeste 30 Oeste 0 -- -- 42
2019-05-23 13:00:00 21.4 12 Sudoeste 28 Oeste 0 -- -- 39
2019-05-23 12:00:00 20.4 10 Oeste 20 Oeste 0 -- -- 43
2019-05-23 11:00:00 19 8 Sudoeste 17 Sudoeste 0 -- -- 48
2019-05-23 10:00:00 16.4 5 Oeste 17 Sudoeste 0 -- -- 56
2019-05-23 09:00:00 13.4 6 Sudoeste 19 Sudoeste 0 -- -- 66
2019-05-23 08:00:00 9.5 3 Sudoeste 8 Sur 0 -- -- 78
2019-05-23 07:00:00 8.7 3 Nordeste 7 Sur 0 -- -- 73
2019-05-23 06:00:00 9.4 2 Sudeste 6 Sur 0 -- -- 71
2019-05-23 05:00:00 9.5 3 Nordeste 6 Nordeste 0 -- -- 70
2019-05-23 04:00:00 11 0 Calma 6 Sudeste 0 -- -- 66
2019-05-23 03:00:00 11.4 3 Nordeste 5 Este 0 -- -- 63
2019-05-23 02:00:00 12.8 3 Nordeste 9 Nordeste 0 -- -- 58
2019-05-23 01:00:00 13.6 6 Este 12 Nordeste 0 -- -- 56
2019-05-23 00:00:00 14.3 3 Nordeste 9 Nordeste 0 -- -- 50
2019-05-22 23:00:00 15.1 5 Sudoeste 13 Sur 0 -- -- 48
2019-05-22 22:00:00 17.5 5 Sur 8 Sur 0 -- -- 39
2019-05-22 21:00:00 19.9 3 Oeste 9 Oeste 0 -- -- 34
2019-05-22 20:00:00 21.7 8 Sudoeste 22 Sudoeste 0 -- -- 31
2019-05-22 19:00:00 22.6 5 Oeste 22 Oeste 0 -- -- 29
2019-05-22 18:00:00 22.1 5 Noroeste 21 Oeste 0 -- -- 32
2019-05-22 17:00:00 22.8 7 Sudoeste 21 Sudoeste 0 -- -- 29
2019-05-22 16:00:00 22.1 7 Sudoeste 23 Oeste 0 -- -- 30
2019-05-22 15:00:00 21.5 9 Sudoeste 21 Sudoeste 0 -- -- 36
2019-05-22 14:00:00 19 9 Noroeste 19 Noroeste 0 -- -- 40
2019-05-22 13:00:00 19.6 5 Oeste 22 Oeste 0 -- -- 39
2019-05-22 12:00:00 18 12 Noroeste 21 Noroeste 0 -- -- 46
2019-05-22 11:00:00 16 4 Noroeste 11 Oeste 0 -- -- 55
2019-05-22 10:00:00 11.7 4 Nordeste 7 Nordeste 0 -- -- 73
2019-05-22 09:00:00 8.2 3 Nordeste 5 Nordeste 0 -- -- 87
2019-05-22 08:00:00 6 3 Nordeste 4 Nordeste 0 -- -- 90
2019-05-22 07:00:00 5.4 3 Nordeste 6 Norte 0 -- -- 88
2019-05-22 06:00:00 5.7 4 Nordeste 6 Norte 0 -- -- 86
2019-05-22 05:00:00 6.5 2 Nordeste 5 Nordeste 0 -- -- 84
2019-05-22 04:00:00 7.6 3 Nordeste 5 Este 0 -- -- 79
2019-05-22 03:00:00 8.1 4 Nordeste 8 Norte 0 -- -- 77
2019-05-22 02:00:00 9.2 4 Nordeste 10 Nordeste 0 -- -- 72
2019-05-22 01:00:00 9.7 7 Sudeste 13 Sudeste 0 -- -- 69
2019-05-22 00:00:00 10.7 4 Nordeste 14 Nordeste 0 -- -- 60
2019-05-21 23:00:00 12.2 5 Nordeste 12 Este 0 -- -- 58
2019-05-21 22:00:00 13.4 5 Este 12 Este 0 -- -- 55
2019-05-21 21:00:00 15.2 3 Nordeste 15 Nordeste 0 -- -- 50
2019-05-21 20:00:00 17.7 4 Nordeste 11 Nordeste 0 -- -- 42
2019-05-21 19:00:00 16.8 2 Nordeste 10 Sudeste 0 -- -- 45
2019-05-21 18:00:00 16.3 4 Sur 17 Este 0 -- -- 47
2019-05-21 17:00:00 15 7 Nordeste 25 Nordeste 0 -- -- 55
2019-05-21 16:00:00 17.1 5 Sudoeste 24 Sudoeste 0 -- -- 42
2019-05-21 15:00:00 18.4 12 Oeste 21 Oeste 0 -- -- 40
2019-05-21 14:00:00 18.7 7 Sur 16 Sudoeste 0 -- -- 36
2019-05-21 13:00:00 17.1 4 Norte 16 Nordeste 0 -- -- 41
2019-05-21 12:00:00 15.9 4 Nordeste 12 Norte 0 -- -- 47
2019-05-21 11:00:00 13.2 7 Nordeste 16 Nordeste 0 -- -- 61
2019-05-21 10:00:00 9.9 8 Nordeste 15 Nordeste 0 -- -- 72
2019-05-21 09:00:00 6.6 6 Nordeste 10 Nordeste 0 -- -- 83
2019-05-21 08:00:00 4.3 5 Nordeste 10 Nordeste 0 -- -- 88
2019-05-21 07:00:00 4 4 Nordeste 7 Este 0 -- -- 86
2019-05-21 06:00:00 4.9 3 Nordeste 10 Nordeste 0 -- -- 83
2019-05-21 05:00:00 5.5 5 Nordeste 11 Este 0 -- -- 83
2019-05-21 04:00:00 6.1 4 Nordeste 10 Nordeste 0 -- -- 81
2019-05-21 03:00:00 7.2 6 Nordeste 18 Este 0 -- -- 76
2019-05-21 02:00:00 7.9 6 Nordeste 19 Este 0 -- -- 74
2019-05-21 01:00:00 7.9 5 Nordeste 17 Nordeste 0 -- -- 70
2019-05-21 00:00:00 8.7 4 Nordeste 10 Nordeste 0 -- -- 61